Warning: Javascript must be enabled to use all the features on this page!


Page Loading - Please Wait...

Click to hideNews Bulletins

Peak Streamflow for the Nation

USGS 05518000 KANKAKEE RIVER AT SHELBY, IN

Newton County, Indiana
Hydrologic Unit Code 07120001
Latitude  41°10'58", Longitude  87°20'25" NAD27
Drainage area 1,779  square miles
Gage datum 627.94 feet above NAVD88
Output formats
Table
Graph
Tab-separated file
peakfq (watstore) format
Reselect output format
Water
Year
Date Gage
Height
(feet)
Stream-
flow
(cfs)
1923 1923-03-13 7.37 3,360
1924 1924-04-09 8.56 4,000
1925 1925-03-23 7.48 3,420
1926 1926-04-16 9.10 4,630
1927 1927-05-01 8.77 4,120
1928 1927-12-21 11.40 7,200
1929 1929-05-07 9.70 5,110
1930 1930-01-13 10.001 4,270
1931 1931-06-09 4.79 1,920
1932 1932-04-01 7.90 3,490
1933 1933-05-13 9.491 4,480
1934 1934-04-07 5.98 2,350
1935 1935-03-12 7.90 3,480
1936 1936-02-27   3,7001
1937 1937-04-28 8.10 3,530
1938 1938-04-13 8.26 3,670
1939 1939-03-16 8.95 4,020
1940 1940-05-09 8.22 3,600
1941 1941-04-23 5.63 2,150
1942 1942-02-10 9.22 4,260
1943 1943-05-25 10.02 6,350
1944 1944-04-26 9.35 4,820
1945 1945-05-23 8.50 3,550
1946 1946-01-10 8.04 3,200
1947 1947-05-02 8.90 3,970
1948 1948-05-16 9.25 4,420
1949 1949-02-23 8.57 3,500
1950 1950-04-16 10.91 5,910
1951 1951-04-15 9.06 3,890
1952 1952-06-16 9.36 4,200
1953 1953-03-19 7.50 2,650
1954 1954-05-03 9.05 3,620
1955 1954-10-27 10.60 5,040
1956 1956-05-12 10.10 4,540
1957 1957-04-30 9.85 4,240
1958 1958-06-14 9.18 3,480
1959 1959-02-16 11.251 5,1001
1960 1960-04-07 9.68 4,160
1961 1961-05-01 10.22 4,640
1962 1962-03-23 10.37 4,840
1963 1963-03-11 8.702 3,410
1964 1964-05-01   2,2002
1965 1965-04-28   3,760
1966 1966-05-21 10.04 4,270
1967 1967-04-18 10.48 4,770
1968 1968-02-09 10.73 5,020
1969 1969-01-21 10.48 4,770
1970 1970-05-16 10.12 4,030
1971 1971-03-20 9.01 3,590
1972 1972-04-24 9.94 4,220
1973 1973-01-06 10.75 5,060
1974 1974-05-24 10.82 4,700
1975 1975-06-26 10.82 4,720
1976 1976-03-06 11.32 5,200
1977 1977-04-05 10.08 4,250
1978 1978-04-09 11.241,2 5,490
1979 1979-03-05 11.60 5,420
1980 1980-04-16 9.78 4,030
1981 1981-06-21   6,2001
1982 1982-03-26   7,6501
1983 1983-05-08 11.44 5,120
1984 1984-03-27 10.33 4,290
1985 1985-03-09 12.25 6,340
1986 1985-11-21 10.59 4,700
1987 1986-10-07 10.33 4,450
1988 1988-04-07 10.17 4,300
1989 1989-06-04 11.01 4,830
1990 1990-08-23 11.92 5,150
1991 1991-01-02 11.91 5,660
1992 1991-11-02 8.262 2,820
1993 1993-01-12 11.82 5,580
1994 1993-10-22 11.71 5,480
1995 1995-04-15 10.45 4,430
1996 1996-07-25 12.23 5,480
1997 1997-03-02 12.11 5,850
1998 1998-03-23 11.43 5,220
1999 1999-04-29 11.78 5,160
2000 2000-06-26 10.87 4,480
2001 2001-02-17 11.03 4,600
2002 2002-05-19 11.72 5,110
2003 2003-07-22 10.90 4,510
2004 2004-06-19 9.53 3,570
2005 2005-01-14 12.32 5,570
2006 2006-03-19 9.56 3,500
2007 2007-08-25 12.23 5,500
2008 2008-09-19 12.862 6,230
2009 2009-03-11 12.632 6,460
2010 2010-03-17 9.88 3,710
2011 2011-04-29 12.24 5,510
2012 2011-12-21 10.27 4,060
2013 2013-04-25 12.05 5,330
2014 2014-06-25 11.91 5,220
2015 2015-06-16 12.99 6,110
2016 2015-12-30 11.16 4,690
2017 2017-04-07 11.25 4,760
2018 2018-02-23 13.30 6,380
2019 2019-05-03 11.942 5,280
2020 2020-05-01 11.59 5,010
?
  Peak Gage-Height Qualification Codes.
?
  Peak Streamflow Qualification Codes.